sensor_id;sensor_type;location;lat;lon;timestamp;P1;durP1;ratioP1;P2;durP2;ratioP2
33814;SDS011;20121;51.910;8.406;2022-12-07T00:01:17;10.30;;;6.57;;
33814;SDS011;20121;51.910;8.406;2022-12-07T00:03:48;9.18;;;5.25;;
33814;SDS011;20121;51.910;8.406;2022-12-07T00:06:15;8.50;;;5.95;;
33814;SDS011;20121;51.910;8.406;2022-12-07T00:08:42;6.70;;;5.03;;
33814;SDS011;20121;51.910;8.406;2022-12-07T00:11:10;5.57;;;4.82;;
33814;SDS011;20121;51.910;8.406;2022-12-07T00:13:37;7.00;;;5.45;;
33814;SDS011;20121;51.910;8.406;2022-12-07T00:18:33;9.52;;;7.40;;
33814;SDS011;20121;51.910;8.406;2022-12-07T00:21:00;7.85;;;5.18;;
33814;SDS011;20121;51.910;8.406;2022-12-07T00:23:26;6.97;;;5.03;;
33814;SDS011;20121;51.910;8.406;2022-12-07T00:25:51;7.90;;;4.70;;
33814;SDS011;20121;51.910;8.406;2022-12-07T00:28:17;11.53;;;5.50;;
33814;SDS011;20121;51.910;8.406;2022-12-07T00:30:43;7.37;;;5.93;;
33814;SDS011;20121;51.910;8.406;2022-12-07T00:33:08;7.73;;;6.37;;
33814;SDS011;20121;51.910;8.406;2022-12-07T00:35:34;6.43;;;3.70;;
33814;SDS011;20121;51.910;8.406;2022-12-07T00:37:59;4.97;;;4.40;;
33814;SDS011;20121;51.910;8.406;2022-12-07T00:40:25;4.80;;;4.38;;
33814;SDS011;20121;51.910;8.406;2022-12-07T00:42:51;7.70;;;5.60;;
33814;SDS011;20121;51.910;8.406;2022-12-07T00:45:17;10.80;;;5.80;;
33814;SDS011;20121;51.910;8.406;2022-12-07T00:47:42;7.90;;;5.63;;
33814;SDS011;20121;51.910;8.406;2022-12-07T00:50:08;8.77;;;4.90;;
33814;SDS011;20121;51.910;8.406;2022-12-07T00:52:34;16.30;;;6.97;;
33814;SDS011;20121;51.910;8.406;2022-12-07T00:54:59;6.33;;;5.13;;
33814;SDS011;20121;51.910;8.406;2022-12-07T00:57:25;9.10;;;5.53;;
33814;SDS011;20121;51.910;8.406;2022-12-07T00:59:50;9.63;;;6.70;;
33814;SDS011;20121;51.910;8.406;2022-12-07T01:02:20;10.20;;;5.82;;
33814;SDS011;20121;51.910;8.406;2022-12-07T01:04:46;7.55;;;3.75;;
33814;SDS011;20121;51.910;8.406;2022-12-07T01:07:11;5.43;;;4.30;;
33814;SDS011;20121;51.910;8.406;2022-12-07T01:09:37;2.80;;;2.60;;
33814;SDS011;20121;51.910;8.406;2022-12-07T01:12:03;3.50;;;3.20;;
33814;SDS011;20121;51.910;8.406;2022-12-07T01:14:29;5.07;;;3.70;;
33814;SDS011;20121;51.910;8.406;2022-12-07T01:16:54;3.73;;;3.50;;
33814;SDS011;20121;51.910;8.406;2022-12-07T01:19:20;8.37;;;5.63;;
33814;SDS011;20121;51.910;8.406;2022-12-07T01:21:45;6.43;;;4.83;;
33814;SDS011;20121;51.910;8.406;2022-12-07T01:24:11;4.43;;;4.03;;
33814;SDS011;20121;51.910;8.406;2022-12-07T01:26:37;6.30;;;4.87;;
33814;SDS011;20121;51.910;8.406;2022-12-07T01:29:02;3.37;;;2.77;;
33814;SDS011;20121;51.910;8.406;2022-12-07T01:31:28;4.60;;;3.78;;
33814;SDS011;20121;51.910;8.406;2022-12-07T01:33:55;10.52;;;5.47;;
33814;SDS011;20121;51.910;8.406;2022-12-07T01:36:31;6.85;;;5.60;;
33814;SDS011;20121;51.910;8.406;2022-12-07T01:39:00;3.15;;;2.95;;
33814;SDS011;20121;51.910;8.406;2022-12-07T01:41:32;4.82;;;3.13;;
33814;SDS011;20121;51.910;8.406;2022-12-07T01:51:50;5.90;;;4.40;;
33814;SDS011;20121;51.910;8.406;2022-12-07T01:54:18;6.03;;;3.83;;
33814;SDS011;20121;51.910;8.406;2022-12-07T01:56:49;4.72;;;3.92;;
33814;SDS011;20121;51.910;8.406;2022-12-07T01:59:17;3.30;;;2.83;;
33814;SDS011;20121;51.910;8.406;2022-12-07T02:01:45;8.80;;;3.88;;
33814;SDS011;20121;51.910;8.406;2022-12-07T02:04:11;6.57;;;5.93;;
33814;SDS011;20121;51.910;8.406;2022-12-07T02:06:37;4.20;;;3.80;;
33814;SDS011;20121;51.910;8.406;2022-12-07T02:09:03;5.95;;;5.28;;
33814;SDS011;20121;51.910;8.406;2022-12-07T02:11:29;2.47;;;2.28;;
33814;SDS011;20121;51.910;8.406;2022-12-07T02:13:55;3.90;;;2.65;;
33814;SDS011;20121;51.910;8.406;2022-12-07T02:30:12;4.60;;;2.45;;
33814;SDS011;20121;51.910;8.406;2022-12-07T02:32:46;5.47;;;4.18;;
33814;SDS011;20121;51.910;8.406;2022-12-07T02:43:31;3.33;;;3.03;;
33814;SDS011;20121;51.910;8.406;2022-12-07T02:46:02;6.85;;;3.78;;
33814;SDS011;20121;51.910;8.406;2022-12-07T02:48:34;4.38;;;2.30;;
33814;SDS011;20121;51.910;8.406;2022-12-07T02:51:02;1.83;;;1.63;;
33814;SDS011;20121;51.910;8.406;2022-12-07T02:53:31;4.37;;;2.77;;
33814;SDS011;20121;51.910;8.406;2022-12-07T02:56:01;3.55;;;2.63;;
33814;SDS011;20121;51.910;8.406;2022-12-07T02:58:50;3.28;;;2.55;;
33814;SDS011;20121;51.910;8.406;2022-12-07T03:06:53;3.67;;;2.63;;
33814;SDS011;20121;51.910;8.406;2022-12-07T03:09:28;2.97;;;2.60;;
33814;SDS011;20121;51.910;8.406;2022-12-07T03:12:01;3.92;;;2.42;;
33814;SDS011;20121;51.910;8.406;2022-12-07T03:14:36;2.25;;;2.10;;
33814;SDS011;20121;51.910;8.406;2022-12-07T03:17:12;2.83;;;2.60;;
33814;SDS011;20121;51.910;8.406;2022-12-07T03:19:40;2.83;;;2.55;;
33814;SDS011;20121;51.910;8.406;2022-12-07T03:22:10;4.05;;;2.50;;
33814;SDS011;20121;51.910;8.406;2022-12-07T03:24:50;1.52;;;1.42;;
33814;SDS011;20121;51.910;8.406;2022-12-07T03:27:21;4.72;;;2.90;;
33814;SDS011;20121;51.910;8.406;2022-12-07T03:30:00;3.25;;;3.03;;
33814;SDS011;20121;51.910;8.406;2022-12-07T03:32:34;1.85;;;1.30;;
33814;SDS011;20121;51.910;8.406;2022-12-07T03:35:11;4.53;;;3.00;;
33814;SDS011;20121;51.910;8.406;2022-12-07T03:37:46;2.90;;;2.30;;
33814;SDS011;20121;51.910;8.406;2022-12-07T03:43:02;3.30;;;2.35;;
33814;SDS011;20121;51.910;8.406;2022-12-07T03:45:37;2.83;;;1.90;;
33814;SDS011;20121;51.910;8.406;2022-12-07T03:48:20;5.15;;;2.28;;
33814;SDS011;20121;51.910;8.406;2022-12-07T03:51:13;4.20;;;2.22;;
33814;SDS011;20121;51.910;8.406;2022-12-07T03:54:00;2.67;;;2.13;;
33814;SDS011;20121;51.910;8.406;2022-12-07T03:56:34;1.80;;;1.70;;
33814;SDS011;20121;51.910;8.406;2022-12-07T03:59:00;3.55;;;3.13;;
33814;SDS011;20121;51.910;8.406;2022-12-07T04:01:26;3.50;;;2.97;;
33814;SDS011;20121;51.910;8.406;2022-12-07T04:03:52;3.42;;;2.15;;
33814;SDS011;20121;51.910;8.406;2022-12-07T04:06:18;2.60;;;1.97;;
33814;SDS011;20121;51.910;8.406;2022-12-07T04:08:44;3.67;;;1.67;;
33814;SDS011;20121;51.910;8.406;2022-12-07T04:11:09;1.97;;;1.70;;
33814;SDS011;20121;51.910;8.406;2022-12-07T04:13:35;2.60;;;2.40;;
33814;SDS011;20121;51.910;8.406;2022-12-07T04:16:21;2.63;;;2.40;;
33814;SDS011;20121;51.910;8.406;2022-12-07T04:18:46;3.47;;;3.17;;
33814;SDS011;20121;51.910;8.406;2022-12-07T04:21:12;3.20;;;1.90;;
33814;SDS011;20121;51.910;8.406;2022-12-07T04:23:37;1.50;;;1.40;;
33814;SDS011;20121;51.910;8.406;2022-12-07T04:26:03;7.40;;;3.50;;
33814;SDS011;20121;51.910;8.406;2022-12-07T04:28:29;3.77;;;3.47;;
33814;SDS011;20121;51.910;8.406;2022-12-07T04:30:54;4.73;;;2.27;;
33814;SDS011;20121;51.910;8.406;2022-12-07T04:33:20;2.87;;;2.63;;
33814;SDS011;20121;51.910;8.406;2022-12-07T04:35:45;3.63;;;1.53;;
33814;SDS011;20121;51.910;8.406;2022-12-07T04:38:11;2.77;;;2.57;;
33814;SDS011;20121;51.910;8.406;2022-12-07T04:40:37;3.07;;;2.40;;
33814;SDS011;20121;51.910;8.406;2022-12-07T04:43:02;2.07;;;1.97;;
33814;SDS011;20121;51.910;8.406;2022-12-07T04:45:28;3.30;;;2.17;;
33814;SDS011;20121;51.910;8.406;2022-12-07T04:47:53;3.07;;;2.87;;
33814;SDS011;20121;51.910;8.406;2022-12-07T04:50:19;2.97;;;2.27;;
33814;SDS011;20121;51.910;8.406;2022-12-07T04:52:45;8.60;;;2.97;;
33814;SDS011;20121;51.910;8.406;2022-12-07T04:55:10;3.67;;;2.67;;
33814;SDS011;20121;51.910;8.406;2022-12-07T04:57:36;3.83;;;3.30;;
33814;SDS011;20121;51.910;8.406;2022-12-07T05:00:02;2.23;;;2.03;;
33814;SDS011;20121;51.910;8.406;2022-12-07T05:02:28;3.22;;;3.00;;
33814;SDS011;20121;51.910;8.406;2022-12-07T05:04:53;2.70;;;1.60;;
33814;SDS011;20121;51.910;8.406;2022-12-07T05:07:19;5.03;;;2.20;;
33814;SDS011;20121;51.910;8.406;2022-12-07T05:09:44;2.73;;;1.73;;
33814;SDS011;20121;51.910;8.406;2022-12-07T05:12:10;2.80;;;2.30;;
33814;SDS011;20121;51.910;8.406;2022-12-07T05:14:36;2.80;;;2.40;;
33814;SDS011;20121;51.910;8.406;2022-12-07T05:17:01;6.47;;;2.20;;
33814;SDS011;20121;51.910;8.406;2022-12-07T05:19:27;2.73;;;2.43;;
33814;SDS011;20121;51.910;8.406;2022-12-07T05:21:52;2.43;;;1.87;;
33814;SDS011;20121;51.910;8.406;2022-12-07T05:24:18;4.80;;;2.13;;
33814;SDS011;20121;51.910;8.406;2022-12-07T05:26:44;5.83;;;2.30;;
33814;SDS011;20121;51.910;8.406;2022-12-07T05:29:11;5.72;;;2.80;;
33814;SDS011;20121;51.910;8.406;2022-12-07T05:31:39;3.78;;;2.42;;
33814;SDS011;20121;51.910;8.406;2022-12-07T05:34:05;3.00;;;2.30;;
33814;SDS011;20121;51.910;8.406;2022-12-07T05:36:31;1.53;;;1.43;;
33814;SDS011;20121;51.910;8.406;2022-12-07T05:38:57;3.33;;;2.00;;
33814;SDS011;20121;51.910;8.406;2022-12-07T05:41:23;6.07;;;3.17;;
33814;SDS011;20121;51.910;8.406;2022-12-07T05:44:07;1.88;;;1.77;;
33814;SDS011;20121;51.910;8.406;2022-12-07T05:46:33;2.20;;;1.87;;
33814;SDS011;20121;51.910;8.406;2022-12-07T05:48:59;1.50;;;1.33;;
33814;SDS011;20121;51.910;8.406;2022-12-07T05:51:25;1.83;;;1.70;;
33814;SDS011;20121;51.910;8.406;2022-12-07T05:53:51;2.42;;;2.22;;
33814;SDS011;20121;51.910;8.406;2022-12-07T05:56:17;2.03;;;1.93;;
33814;SDS011;20121;51.910;8.406;2022-12-07T05:58:42;2.73;;;1.83;;
33814;SDS011;20121;51.910;8.406;2022-12-07T06:01:26;3.03;;;1.38;;
33814;SDS011;20121;51.910;8.406;2022-12-07T06:03:53;4.10;;;1.45;;
33814;SDS011;20121;51.910;8.406;2022-12-07T06:06:19;2.75;;;1.83;;
33814;SDS011;20121;51.910;8.406;2022-12-07T06:08:44;2.63;;;2.20;;
33814;SDS011;20121;51.910;8.406;2022-12-07T06:11:10;3.35;;;2.00;;
33814;SDS011;20121;51.910;8.406;2022-12-07T06:13:54;4.95;;;2.40;;
33814;SDS011;20121;51.910;8.406;2022-12-07T06:16:20;1.53;;;1.43;;
33814;SDS011;20121;51.910;8.406;2022-12-07T06:18:45;2.23;;;2.03;;
33814;SDS011;20121;51.910;8.406;2022-12-07T06:21:11;5.20;;;2.37;;
33814;SDS011;20121;51.910;8.406;2022-12-07T06:23:37;2.87;;;2.43;;
33814;SDS011;20121;51.910;8.406;2022-12-07T06:26:02;1.40;;;1.30;;
33814;SDS011;20121;51.910;8.406;2022-12-07T06:28:28;1.53;;;1.33;;
33814;SDS011;20121;51.910;8.406;2022-12-07T06:31:00;4.30;;;2.37;;
33814;SDS011;20121;51.910;8.406;2022-12-07T06:33:27;2.15;;;1.33;;
33814;SDS011;20121;51.910;8.406;2022-12-07T06:35:53;3.85;;;2.70;;
33814;SDS011;20121;51.910;8.406;2022-12-07T06:38:19;6.00;;;3.08;;
33814;SDS011;20121;51.910;8.406;2022-12-07T06:40:45;2.80;;;2.65;;
33814;SDS011;20121;51.910;8.406;2022-12-07T06:43:10;2.90;;;2.13;;
33814;SDS011;20121;51.910;8.406;2022-12-07T06:45:36;2.77;;;2.57;;
33814;SDS011;20121;51.910;8.406;2022-12-07T06:48:02;1.67;;;1.17;;
33814;SDS011;20121;51.910;8.406;2022-12-07T06:50:28;6.50;;;3.17;;
33814;SDS011;20121;51.910;8.406;2022-12-07T06:52:53;3.93;;;2.00;;
33814;SDS011;20121;51.910;8.406;2022-12-07T06:55:19;5.90;;;2.30;;
33814;SDS011;20121;51.910;8.406;2022-12-07T06:57:45;5.90;;;4.23;;
33814;SDS011;20121;51.910;8.406;2022-12-07T07:00:10;2.83;;;2.63;;
33814;SDS011;20121;51.910;8.406;2022-12-07T07:02:37;1.42;;;1.33;;
33814;SDS011;20121;51.910;8.406;2022-12-07T07:05:02;3.97;;;3.60;;
33814;SDS011;20121;51.910;8.406;2022-12-07T07:07:28;2.03;;;1.70;;
33814;SDS011;20121;51.910;8.406;2022-12-07T07:09:54;3.13;;;1.43;;
33814;SDS011;20121;51.910;8.406;2022-12-07T07:12:19;2.53;;;2.30;;
33814;SDS011;20121;51.910;8.406;2022-12-07T07:14:45;1.40;;;1.27;;
33814;SDS011;20121;51.910;8.406;2022-12-07T07:17:11;1.70;;;1.60;;
33814;SDS011;20121;51.910;8.406;2022-12-07T07:19:36;1.23;;;1.00;;
33814;SDS011;20121;51.910;8.406;2022-12-07T07:22:02;2.80;;;2.60;;
33814;SDS011;20121;51.910;8.406;2022-12-07T07:24:28;2.53;;;2.30;;
33814;SDS011;20121;51.910;8.406;2022-12-07T07:26:54;1.73;;;1.43;;
33814;SDS011;20121;51.910;8.406;2022-12-07T07:29:19;2.40;;;2.23;;
33814;SDS011;20121;51.910;8.406;2022-12-07T07:31:45;3.83;;;2.73;;
33814;SDS011;20121;51.910;8.406;2022-12-07T07:34:11;2.50;;;2.30;;
33814;SDS011;20121;51.910;8.406;2022-12-07T07:36:36;1.33;;;1.23;;
33814;SDS011;20121;51.910;8.406;2022-12-07T07:39:02;1.20;;;1.10;;
33814;SDS011;20121;51.910;8.406;2022-12-07T07:41:27;4.00;;;1.67;;
33814;SDS011;20121;51.910;8.406;2022-12-07T07:43:53;10.13;;;2.10;;
33814;SDS011;20121;51.910;8.406;2022-12-07T07:46:19;3.23;;;2.93;;
33814;SDS011;20121;51.910;8.406;2022-12-07T07:48:44;1.70;;;1.40;;
33814;SDS011;20121;51.910;8.406;2022-12-07T07:51:10;1.70;;;1.60;;
33814;SDS011;20121;51.910;8.406;2022-12-07T07:53:35;2.07;;;1.87;;
33814;SDS011;20121;51.910;8.406;2022-12-07T07:56:01;2.20;;;2.00;;
33814;SDS011;20121;51.910;8.406;2022-12-07T07:58:27;3.63;;;2.40;;
33814;SDS011;20121;51.910;8.406;2022-12-07T08:00:52;6.73;;;2.23;;
33814;SDS011;20121;51.910;8.406;2022-12-07T08:03:19;1.73;;;1.63;;
33814;SDS011;20121;51.910;8.406;2022-12-07T08:05:44;2.50;;;1.60;;
33814;SDS011;20121;51.910;8.406;2022-12-07T08:08:10;1.57;;;1.33;;
33814;SDS011;20121;51.910;8.406;2022-12-07T08:10:36;2.13;;;1.40;;
33814;SDS011;20121;51.910;8.406;2022-12-07T08:13:02;1.05;;;0.80;;
33814;SDS011;20121;51.910;8.406;2022-12-07T08:15:38;1.50;;;1.40;;
33814;SDS011;20121;51.910;8.406;2022-12-07T08:18:06;2.28;;;1.38;;
33814;SDS011;20121;51.910;8.406;2022-12-07T08:20:32;9.83;;;3.23;;
33814;SDS011;20121;51.910;8.406;2022-12-07T08:22:58;1.70;;;1.45;;
33814;SDS011;20121;51.910;8.406;2022-12-07T08:25:24;2.35;;;1.77;;
33814;SDS011;20121;51.910;8.406;2022-12-07T08:27:51;2.50;;;2.40;;
33814;SDS011;20121;51.910;8.406;2022-12-07T08:30:17;2.75;;;1.23;;
33814;SDS011;20121;51.910;8.406;2022-12-07T08:32:46;2.70;;;2.20;;
33814;SDS011;20121;51.910;8.406;2022-12-07T08:35:13;5.70;;;1.27;;
33814;SDS011;20121;51.910;8.406;2022-12-07T08:37:39;1.25;;;1.15;;
33814;SDS011;20121;51.910;8.406;2022-12-07T08:40:05;1.47;;;1.23;;
33814;SDS011;20121;51.910;8.406;2022-12-07T08:42:32;1.92;;;1.75;;
33814;SDS011;20121;51.910;8.406;2022-12-07T08:45:05;1.15;;;0.63;;
33814;SDS011;20121;51.910;8.406;2022-12-07T08:47:33;3.80;;;1.60;;
33814;SDS011;20121;51.910;8.406;2022-12-07T08:50:01;1.77;;;1.35;;
33814;SDS011;20121;51.910;8.406;2022-12-07T08:52:31;3.88;;;2.30;;
33814;SDS011;20121;51.910;8.406;2022-12-07T08:54:58;1.90;;;1.20;;
33814;SDS011;20121;51.910;8.406;2022-12-07T08:57:26;1.17;;;0.80;;
33814;SDS011;20121;51.910;8.406;2022-12-07T08:59:52;1.23;;;1.13;;
33814;SDS011;20121;51.910;8.406;2022-12-07T09:02:18;2.70;;;1.37;;
33814;SDS011;20121;51.910;8.406;2022-12-07T09:04:44;2.97;;;1.67;;
33814;SDS011;20121;51.910;8.406;2022-12-07T09:07:10;1.63;;;1.53;;
33814;SDS011;20121;51.910;8.406;2022-12-07T09:09:35;2.70;;;1.10;;
33814;SDS011;20121;51.910;8.406;2022-12-07T09:12:01;1.20;;;1.03;;
33814;SDS011;20121;51.910;8.406;2022-12-07T09:14:27;4.43;;;3.65;;
33814;SDS011;20121;51.910;8.406;2022-12-07T09:16:53;1.10;;;0.97;;
33814;SDS011;20121;51.910;8.406;2022-12-07T09:19:19;2.93;;;2.03;;
33814;SDS011;20121;51.910;8.406;2022-12-07T09:21:44;2.30;;;1.73;;
33814;SDS011;20121;51.910;8.406;2022-12-07T09:24:11;1.57;;;1.47;;
33814;SDS011;20121;51.910;8.406;2022-12-07T09:26:37;8.50;;;1.58;;
33814;SDS011;20121;51.910;8.406;2022-12-07T09:29:05;2.28;;;1.50;;
33814;SDS011;20121;51.910;8.406;2022-12-07T09:31:31;4.30;;;1.97;;
33814;SDS011;20121;51.910;8.406;2022-12-07T09:33:57;1.10;;;1.00;;
33814;SDS011;20121;51.910;8.406;2022-12-07T09:36:24;0.90;;;0.90;;
33814;SDS011;20121;51.910;8.406;2022-12-07T09:38:50;3.90;;;2.03;;
33814;SDS011;20121;51.910;8.406;2022-12-07T09:41:16;1.87;;;1.37;;
33814;SDS011;20121;51.910;8.406;2022-12-07T09:43:42;2.75;;;1.50;;
33814;SDS011;20121;51.910;8.406;2022-12-07T09:46:09;1.63;;;1.53;;
33814;SDS011;20121;51.910;8.406;2022-12-07T09:48:40;0.93;;;0.90;;
33814;SDS011;20121;51.910;8.406;2022-12-07T09:51:20;3.90;;;3.30;;
33814;SDS011;20121;51.910;8.406;2022-12-07T09:53:48;2.28;;;1.90;;
33814;SDS011;20121;51.910;8.406;2022-12-07T09:56:15;3.42;;;2.15;;
33814;SDS011;20121;51.910;8.406;2022-12-07T09:58:42;1.75;;;1.65;;
33814;SDS011;20121;51.910;8.406;2022-12-07T10:03:37;2.87;;;1.07;;
33814;SDS011;20121;51.910;8.406;2022-12-07T10:06:04;1.27;;;1.17;;
33814;SDS011;20121;51.910;8.406;2022-12-07T10:08:31;1.88;;;1.77;;
33814;SDS011;20121;51.910;8.406;2022-12-07T10:10:57;1.65;;;1.55;;
33814;SDS011;20121;51.910;8.406;2022-12-07T10:13:42;1.98;;;1.08;;
33814;SDS011;20121;51.910;8.406;2022-12-07T10:18:49;1.05;;;0.95;;
33814;SDS011;20121;51.910;8.406;2022-12-07T10:29:23;2.10;;;2.00;;
33814;SDS011;20121;51.910;8.406;2022-12-07T10:31:55;2.75;;;1.23;;
33814;SDS011;20121;51.910;8.406;2022-12-07T10:44:47;1.63;;;1.42;;
33814;SDS011;20121;51.910;8.406;2022-12-07T10:47:31;3.67;;;1.20;;
33814;SDS011;20121;51.910;8.406;2022-12-07T11:01:28;9.07;;;2.45;;
33814;SDS011;20121;51.910;8.406;2022-12-07T11:07:22;1.38;;;1.27;;
33814;SDS011;20121;51.910;8.406;2022-12-07T11:12:35;1.63;;;1.20;;
33814;SDS011;20121;51.910;8.406;2022-12-07T11:17:51;1.40;;;1.33;;
33814;SDS011;20121;51.910;8.406;2022-12-07T11:26:41;1.17;;;1.17;;
33814;SDS011;20121;51.910;8.406;2022-12-07T11:29:27;1.80;;;1.05;;
33814;SDS011;20121;51.910;8.406;2022-12-07T11:37:24;0.90;;;0.75;;
33814;SDS011;20121;51.910;8.406;2022-12-07T11:39:55;1.10;;;0.95;;
33814;SDS011;20121;51.910;8.406;2022-12-07T11:42:28;0.80;;;0.80;;
33814;SDS011;20121;51.910;8.406;2022-12-07T11:45:19;3.90;;;1.50;;
33814;SDS011;20121;51.910;8.406;2022-12-07T11:47:56;1.67;;;1.52;;
33814;SDS011;20121;51.910;8.406;2022-12-07T11:50:34;0.82;;;0.82;;
33814;SDS011;20121;51.910;8.406;2022-12-07T12:03:52;2.45;;;1.55;;
33814;SDS011;20121;51.910;8.406;2022-12-07T12:06:21;3.80;;;2.33;;
33814;SDS011;20121;51.910;8.406;2022-12-07T12:22:43;1.23;;;1.13;;
33814;SDS011;20121;51.910;8.406;2022-12-07T12:25:17;4.22;;;1.75;;
33814;SDS011;20121;51.910;8.406;2022-12-07T12:27:54;1.80;;;1.25;;
33814;SDS011;20121;51.910;8.406;2022-12-07T12:30:38;2.75;;;1.90;;
33814;SDS011;20121;51.910;8.406;2022-12-07T12:33:25;9.00;;;2.88;;
33814;SDS011;20121;51.910;8.406;2022-12-07T12:51:50;3.00;;;1.45;;
33814;SDS011;20121;51.910;8.406;2022-12-07T12:54:20;2.65;;;1.35;;
33814;SDS011;20121;51.910;8.406;2022-12-07T13:02:30;24.00;;;2.10;;
33814;SDS011;20121;51.910;8.406;2022-12-07T13:05:21;3.65;;;1.60;;
33814;SDS011;20121;51.910;8.406;2022-12-07T13:08:02;8.15;;;1.95;;
33814;SDS011;20121;51.910;8.406;2022-12-07T13:10:49;3.67;;;2.10;;
33814;SDS011;20121;51.910;8.406;2022-12-07T13:15:47;2.55;;;1.15;;
33814;SDS011;20121;51.910;8.406;2022-12-07T13:23:20;1.70;;;1.60;;
33814;SDS011;20121;51.910;8.406;2022-12-07T13:29:15;1.40;;;1.30;;
33814;SDS011;20121;51.910;8.406;2022-12-07T13:37:01;1.15;;;0.80;;
33814;SDS011;20121;51.910;8.406;2022-12-07T13:39:44;3.83;;;1.40;;
33814;SDS011;20121;51.910;8.406;2022-12-07T13:42:26;2.45;;;2.03;;
33814;SDS011;20121;51.910;8.406;2022-12-07T13:44:56;2.10;;;1.90;;
33814;SDS011;20121;51.910;8.406;2022-12-07T13:50:01;0.93;;;0.93;;
33814;SDS011;20121;51.910;8.406;2022-12-07T13:52:28;2.95;;;1.70;;
33814;SDS011;20121;51.910;8.406;2022-12-07T13:57:30;1.30;;;1.10;;
33814;SDS011;20121;51.910;8.406;2022-12-07T14:00:00;1.38;;;1.27;;
33814;SDS011;20121;51.910;8.406;2022-12-07T14:02:33;1.35;;;1.05;;
33814;SDS011;20121;51.910;8.406;2022-12-07T14:05:12;1.20;;;1.00;;
33814;SDS011;20121;51.910;8.406;2022-12-07T14:07:53;1.70;;;1.05;;
33814;SDS011;20121;51.910;8.406;2022-12-07T14:10:33;1.00;;;1.00;;
33814;SDS011;20121;51.910;8.406;2022-12-07T14:13:02;1.92;;;1.10;;
33814;SDS011;20121;51.910;8.406;2022-12-07T14:15:49;1.15;;;1.05;;
33814;SDS011;20121;51.910;8.406;2022-12-07T14:18:27;1.20;;;1.10;;
33814;SDS011;20121;51.910;8.406;2022-12-07T14:23:35;0.88;;;0.88;;
33814;SDS011;20121;51.910;8.406;2022-12-07T14:28:36;1.50;;;1.05;;
33814;SDS011;20121;51.910;8.406;2022-12-07T14:31:03;1.50;;;1.25;;
33814;SDS011;20121;51.910;8.406;2022-12-07T14:33:33;1.08;;;0.90;;
33814;SDS011;20121;51.910;8.406;2022-12-07T14:35:58;0.80;;;0.80;;
33814;SDS011;20121;51.910;8.406;2022-12-07T14:38:25;0.97;;;0.90;;
33814;SDS011;20121;51.910;8.406;2022-12-07T14:40:51;4.70;;;1.95;;
33814;SDS011;20121;51.910;8.406;2022-12-07T14:43:18;1.08;;;0.90;;
33814;SDS011;20121;51.910;8.406;2022-12-07T14:45:45;3.75;;;1.33;;
33814;SDS011;20121;51.910;8.406;2022-12-07T14:48:12;1.23;;;0.90;;
33814;SDS011;20121;51.910;8.406;2022-12-07T14:50:47;0.80;;;0.80;;
33814;SDS011;20121;51.910;8.406;2022-12-07T14:53:16;7.72;;;1.45;;
33814;SDS011;20121;51.910;8.406;2022-12-07T14:55:46;0.98;;;0.93;;
33814;SDS011;20121;51.910;8.406;2022-12-07T14:58:15;0.90;;;0.87;;
33814;SDS011;20121;51.910;8.406;2022-12-07T15:00:43;0.77;;;0.77;;
33814;SDS011;20121;51.910;8.406;2022-12-07T15:03:09;1.20;;;1.10;;
33814;SDS011;20121;51.910;8.406;2022-12-07T15:05:35;1.27;;;1.10;;
33814;SDS011;20121;51.910;8.406;2022-12-07T15:08:01;0.60;;;0.60;;
33814;SDS011;20121;51.910;8.406;2022-12-07T15:10:28;1.93;;;1.60;;
33814;SDS011;20121;51.910;8.406;2022-12-07T15:13:00;2.15;;;1.17;;
33814;SDS011;20121;51.910;8.406;2022-12-07T15:15:46;4.32;;;0.90;;
33814;SDS011;20121;51.910;8.406;2022-12-07T15:18:13;1.80;;;0.90;;
33814;SDS011;20121;51.910;8.406;2022-12-07T15:20:39;1.00;;;0.83;;
33814;SDS011;20121;51.910;8.406;2022-12-07T15:23:05;0.80;;;0.80;;
33814;SDS011;20121;51.910;8.406;2022-12-07T15:25:30;1.70;;;1.30;;
33814;SDS011;20121;51.910;8.406;2022-12-07T15:27:56;1.00;;;0.90;;
33814;SDS011;20121;51.910;8.406;2022-12-07T15:30:21;1.00;;;0.83;;
33814;SDS011;20121;51.910;8.406;2022-12-07T15:32:50;0.90;;;0.73;;
33814;SDS011;20121;51.910;8.406;2022-12-07T15:35:17;1.70;;;1.20;;
33814;SDS011;20121;51.910;8.406;2022-12-07T15:37:42;1.37;;;0.90;;
33814;SDS011;20121;51.910;8.406;2022-12-07T15:40:08;1.27;;;0.97;;
33814;SDS011;20121;51.910;8.406;2022-12-07T15:42:35;1.70;;;1.58;;
33814;SDS011;20121;51.910;8.406;2022-12-07T15:45:01;2.17;;;1.63;;
33814;SDS011;20121;51.910;8.406;2022-12-07T15:47:30;2.45;;;1.25;;
33814;SDS011;20121;51.910;8.406;2022-12-07T15:50:01;1.52;;;1.42;;
33814;SDS011;20121;51.910;8.406;2022-12-07T15:52:32;1.85;;;1.67;;
33814;SDS011;20121;51.910;8.406;2022-12-07T15:54:58;6.78;;;1.17;;
33814;SDS011;20121;51.910;8.406;2022-12-07T15:57:25;1.60;;;1.35;;
33814;SDS011;20121;51.910;8.406;2022-12-07T15:59:51;7.97;;;1.98;;
33814;SDS011;20121;51.910;8.406;2022-12-07T16:02:17;1.65;;;1.55;;
33814;SDS011;20121;51.910;8.406;2022-12-07T16:04:43;1.40;;;1.07;;
33814;SDS011;20121;51.910;8.406;2022-12-07T16:07:08;0.80;;;0.80;;
33814;SDS011;20121;51.910;8.406;2022-12-07T16:09:36;1.55;;;1.35;;
33814;SDS011;20121;51.910;8.406;2022-12-07T16:12:02;1.92;;;1.08;;
33814;SDS011;20121;51.910;8.406;2022-12-07T16:14:28;1.70;;;1.30;;
33814;SDS011;20121;51.910;8.406;2022-12-07T16:16:54;2.40;;;2.20;;
33814;SDS011;20121;51.910;8.406;2022-12-07T16:19:19;0.80;;;0.80;;
33814;SDS011;20121;51.910;8.406;2022-12-07T16:21:45;2.10;;;1.33;;
33814;SDS011;20121;51.910;8.406;2022-12-07T16:24:11;2.43;;;2.33;;
33814;SDS011;20121;51.910;8.406;2022-12-07T16:26:38;2.38;;;2.03;;
33814;SDS011;20121;51.910;8.406;2022-12-07T16:29:03;1.50;;;1.40;;
33814;SDS011;20121;51.910;8.406;2022-12-07T16:31:29;1.13;;;0.87;;
33814;SDS011;20121;51.910;8.406;2022-12-07T16:33:55;1.87;;;1.23;;
33814;SDS011;20121;51.910;8.406;2022-12-07T16:36:23;0.70;;;0.63;;
33814;SDS011;20121;51.910;8.406;2022-12-07T16:38:51;1.27;;;1.17;;
33814;SDS011;20121;51.910;8.406;2022-12-07T16:41:16;2.20;;;1.35;;
33814;SDS011;20121;51.910;8.406;2022-12-07T16:43:43;2.00;;;1.07;;
33814;SDS011;20121;51.910;8.406;2022-12-07T16:46:10;3.33;;;1.70;;
33814;SDS011;20121;51.910;8.406;2022-12-07T16:48:39;1.40;;;1.30;;
33814;SDS011;20121;51.910;8.406;2022-12-07T16:51:05;1.35;;;1.25;;
33814;SDS011;20121;51.910;8.406;2022-12-07T16:53:34;1.48;;;1.38;;
33814;SDS011;20121;51.910;8.406;2022-12-07T16:56:00;2.22;;;1.38;;
33814;SDS011;20121;51.910;8.406;2022-12-07T16:58:26;2.30;;;2.20;;
33814;SDS011;20121;51.910;8.406;2022-12-07T17:00:52;4.20;;;1.63;;
33814;SDS011;20121;51.910;8.406;2022-12-07T17:03:17;1.83;;;0.90;;
33814;SDS011;20121;51.910;8.406;2022-12-07T17:05:44;1.27;;;0.97;;
33814;SDS011;20121;51.910;8.406;2022-12-07T17:08:10;1.42;;;1.30;;
33814;SDS011;20121;51.910;8.406;2022-12-07T17:10:38;1.38;;;1.05;;
33814;SDS011;20121;51.910;8.406;2022-12-07T17:13:06;3.17;;;1.55;;
33814;SDS011;20121;51.910;8.406;2022-12-07T17:16:01;0.77;;;0.77;;
33814;SDS011;20121;51.910;8.406;2022-12-07T17:18:30;0.82;;;0.80;;
33814;SDS011;20121;51.910;8.406;2022-12-07T17:21:01;1.75;;;1.20;;
33814;SDS011;20121;51.910;8.406;2022-12-07T17:23:29;0.70;;;0.68;;
33814;SDS011;20121;51.910;8.406;2022-12-07T17:25:55;0.82;;;0.73;;
33814;SDS011;20121;51.910;8.406;2022-12-07T17:28:21;2.40;;;1.23;;
33814;SDS011;20121;51.910;8.406;2022-12-07T17:30:46;4.50;;;2.23;;
33814;SDS011;20121;51.910;8.406;2022-12-07T17:33:12;6.00;;;2.00;;
33814;SDS011;20121;51.910;8.406;2022-12-07T17:35:37;1.00;;;0.87;;
33814;SDS011;20121;51.910;8.406;2022-12-07T17:38:03;0.80;;;0.80;;
33814;SDS011;20121;51.910;8.406;2022-12-07T17:40:29;1.37;;;1.23;;
33814;SDS011;20121;51.910;8.406;2022-12-07T17:42:54;1.70;;;1.13;;
33814;SDS011;20121;51.910;8.406;2022-12-07T17:45:20;1.93;;;1.40;;